Auburndale, Wisconsin
Current Conditions -  °F | °C
As of 6:54 PM on Thursday 30 Oct 2014 (Local Time) from KMFI Reporting Station
Overcast Overcast  
Wind Chill: 36°   Ceiling: 2600
Heat Index: 44°   Visibility: 10mi
Dew Point: 35°   Wind: 18mph
Humidity: 71%   Direction: 320°NW
Pressure: 30.06"   Gusts: 24mph
Location:  44.63°N, 90.01°W
Report Text: KMFI 302354Z AUTO 32016G21KT 10SM BKN026 OVC031 07/02 A3006 RMK AO2 SLP192 T00670017 10089 20067 53008
Loading
Personal Weather Stations






























Interactive Weather Map
Tropical Storm Tracking
New forecast layout! Learn more

10-Day Weather Forecast

Advertisements
Track Severe Weather on mobile